Airfield :
LOGIN :

Register | Disclaimer

   EN    FR    IT 

 










Legend :    VFR   Marginal VFR   IFR   Intensive IFR   Very Intensive IFR
Visi :
Ceiling :
>= 8 km
>= 3000ft
5 to 8 km
1000 to 3000 ft
1500m to 5 km
500 to 1000 ft
800 to 1500m
200 to 500 ft
< 800m
< 200 ft
Symbols :   Thunderstorms  Fog  Heavy snow  Heavy precipitations  Wind > 20 kt
SIGMETs :     Misc.  Thunderstorms  Icing  Turbulence  Mountain Waves  Volcanic Ashes






- Airport Elevation : 170 ft
- IATA code : KRP


EKKA - Karup

CURRENT METAR :
  • 212050Z AUTO 09009KT 4700 BR OVC005/// 09/08 Q1011

EXPIRED METARs :
  • 212020Z AUTO 09010KT 6000 OVC004/// 09/08 Q1011
  • 211957Z AUTO 09011KT 4900 OVC003/// 09/08 Q1011
  • 211920Z AUTO 08010KT 3300 BR OVC003/// 08/07 Q1011
  • 211850Z AUTO 09011KT 3300 BR OVC002/// 08/07 Q1011
  • 211820Z AUTO 08010KT 1100 R09R/P2000N R27L/P2000N -SHRA BR VV003 08/07 Q1012

TAF TAF EKKA
Valid from the 21 at 21:00 until the 22 at 21:00 UTC


212013Z 2121/2221 08008KT 5000 BR BKN008
TEMPO 2121/2206 0500 FG -RADZ BKN001
TEMPO 2206/2208 1800 -RADZ BR BKN002
TEMPO 2210/2212 8000 NSW BKN012
BECMG 2212/2214 8000 NSW BKN015
TEMPO 2214/2221 3000 BR BKN005



MET'MAP, your aeronautical weather chart ! - Copyright ORBIFLY December 2007 - Disclaimer

ORBIFLY MET'MAP TEAM :

Programming & Development : Alexandra Zaïnal
Concept & Development : Baudouin d'Aumeries
Co-Development & Prog : Marc-Olivier Méhu
Technical & hardware support : Manuel Goepfert

Contact : metmap@orbifly.com




SOURCES & CREDITS :

   NOAA